Home   Weather   USA   Palestine   Past weeks
Flag for USA

Past Weather in Palestine, Texas, USA — Yesterday and Last 2 Weeks

Currently: 73 °F. Overcast. (Weather station: Palestine Municipal Airport, USA). See more current weather

Past Weather in Palestine — Graph

°F

Palestine Temperature Yesterday

Maximum temperature yesterday: 93 °F (at 2:55 pm)
Minimum temperature yesterday: 77 °F (at 5:15 am)
Average temperature yesterday: 82 °F

High & Low Weather Summary for the Past Weeks

 TemperatureHumidityPressure
High93 °F (Jun 9, 3:55 pm)100% (Jun 7, 12:55 pm)30.06 "Hg (Jun 7, 12:55 pm)
Low66 °F (Jun 19, 5:55 am)36% (Jun 18, 3:55 pm)29.77 "Hg (Jun 20, 5:35 pm)
Average80 °F83%29.91 "Hg
* Reported Jun 7 8:15 am — Jun 22 8:15 am, Palestine. Weather by CustomWeather, © 2021

Note: Actual official high and low records may vary slightly from our data, if they occured in-between our weather recording intervals... More about our weather records

Palestine Weather History for the Previous 24 Hours

Scroll right to see more
 ConditionsComfort  
Time TempWeatherWind HumidityBarometerVisibility
8:15 am
Tue, Jun 22
72 °FOvercast.12 mph88%30.01 "Hg8 mi
7:55 am72 °FOvercast.10 mph88%29.99 "Hg8 mi
7:35 am73 °FOvercast.12 mph89%29.99 "Hg7 mi
6:55 am73 °FFog.8 mph94%29.98 "Hg6 mi
6:35 am73 °FFog.8 mph94%29.98 "Hg6 mi
6:15 am73 °FOvercast.8 mph89%29.98 "Hg9 mi
5:55 am73 °FOvercast.8 mph89%29.98 "Hg10 mi
5:35 am73 °FOvercast.6 mph89%29.97 "Hg10 mi
5:15 am72 °FOvercast.8 mph94%29.96 "Hg10 mi
4:55 am72 °FOvercast.8 mph94%29.96 "Hg10 mi
4:35 am72 °FOvercast.6 mph94%29.96 "Hg10 mi
4:15 am72 °FOvercast.5 mph94%29.97 "Hg10 mi
3:55 am72 °FOvercast.7 mph94%29.96 "Hg9 mi
3:35 am73 °FMostly cloudy.7 mph89%29.97 "Hg10 mi
2:35 am73 °FMostly cloudy.7 mph89%29.96 "Hg10 mi
2:15 am73 °FMostly cloudy.8 mph89%29.95 "Hg10 mi
1:55 am73 °FOvercast.10 mph94%29.95 "Hg10 mi
1:15 am75 °FOvercast.9 mph89%29.95 "Hg10 mi
12:55 am75 °FMostly cloudy.8 mph89%29.96 "Hg10 mi
12:35 am75 °FMostly cloudy.7 mph94%29.97 "Hg10 mi
12:15 am75 °FMostly cloudy.7 mph94%29.96 "Hg9 mi
11:55 pm
Mon, Jun 21
77 °FOvercast.6 mph89%29.95 "Hg10 mi
11:35 pm77 °FOvercast.No wind89%29.97 "Hg10 mi
11:15 pm77 °FMostly cloudy.No wind89%29.98 "Hg9 mi
10:55 pm77 °FOvercast.5 mph94%29.96 "Hg9 mi
10:35 pm77 °FThunderstorms. Mostly cloudy.7 mph94%29.95 "Hg10 mi
10:15 pm77 °FOvercast.12 mph94%29.94 "Hg10 mi
9:55 pm79 °FOvercast.9 mph89%29.94 "Hg10 mi
9:35 pm79 °FThundershowers. Partly cloudy.10 mph89%29.92 "Hg9 mi
9:15 pm79 °FClear.12 mph89%29.89 "Hg8 mi
8:55 pm79 °FPartly cloudy.13 mph94%29.85 "Hg8 mi
8:35 pm81 °FThundershowers. Mostly cloudy.10 mph84%29.85 "Hg9 mi
8:15 pm82 °FPartly sunny.12 mph79%29.87 "Hg9 mi
7:55 pm82 °FThundershowers. Passing clouds.10 mph89%29.86 "Hg9 mi
7:15 pm84 °FSunny.No wind79%29.83 "Hg10 mi
6:55 pm86 °FWarm.5 mph70%29.83 "Hg10 mi
6:15 pm88 °FSunny.5 mph66%29.80 "Hg10 mi
5:55 pm86 °FSunny.7 mph70%29.80 "Hg10 mi
5:35 pm81 °FSunny.No wind84%29.80 "Hg9 mi
5:15 pm79 °FSunny.No wind89%29.80 "Hg9 mi
4:55 pm77 °FThundershowers. Passing clouds.7 mph94%29.81 "Hg8 mi
4:35 pm81 °FThundershowers. Passing clouds.10 mph89%29.82 "Hg7 mi
3:55 pm88 °FThundershowers. Haze.6 mph75%29.83 "Hg4 mi
3:35 pm91 °FBroken clouds.7 mph63%29.84 "Hg1 mi
3:15 pm91 °FScattered clouds.5 mph59%29.84 "Hg5 mi
2:55 pm93 °FPartly sunny.7 mph59%29.84 "Hg7 mi
2:35 pm91 °FPassing clouds.7 mph59%29.83 "Hg9 mi
2:15 pm91 °FPassing clouds.8 mph59%29.83 "Hg9 mi
1:55 pm91 °FPassing clouds.5 mph59%29.83 "Hg9 mi
1:35 pm91 °FPassing clouds.13 mph59%29.84 "Hg8 mi
12:55 pm90 °FPassing clouds.12 mph67%29.86 "Hg8 mi
12:35 pm90 °FScattered clouds.12 mph67%29.87 "Hg8 mi
12:15 pm88 °FBroken clouds.9 mph70%29.87 "Hg7 mi
11:55 am86 °FPartly sunny.6 mph75%29.88 "Hg7 mi
11:35 am84 °FLight rain. Partly sunny.7 mph84%29.88 "Hg5 mi
10:55 am84 °FCloudy.6 mph79%29.89 "Hg7 mi
10:35 am84 °FCloudy.8 mph79%29.89 "Hg7 mi
10:15 am82 °FMostly cloudy.8 mph84%29.88 "Hg7 mi
9:55 am82 °FMostly cloudy.7 mph84%29.88 "Hg7 mi
9:35 am82 °FOvercast.8 mph84%29.88 "Hg7 mi
9:15 am81 °FMostly cloudy.7 mph89%29.88 "Hg7 mi
Weather by CustomWeather, © 2021

See weather overview